RYR4BJ LIME-LOWW
Flight info
| Callsign | RYR4BJ |
|---|---|
| Flight time | 0h 54m |
| Altitude | 32000 |
| Route | LEGLO L615 OSKOR M985 NESTI/N0453F330 DCT ARALD DCT ABTAN ABTAN2W |
| Aircraft | B738/M-SDE2E3FGHIRWXY/LB1 |
Departure
| Time | 2026-04-24 16:13 |
|---|---|
| Airport | Il Caravaggio International Airport (LIME) |
Arrival
| Time | 2026-04-24 17:07 |
|---|---|
| Airport | Vienna International Airport (LOWW) |
| Time | Latitude | Longitude | Altitude | Speed | Heading |
|---|---|---|---|---|---|
| 2026-04-24 15:37 | 45.66638 | 9.70059 | 776 ft | 0 kts | 195° |
| 2026-04-24 16:04 | 45.66651 | 9.70064 | 777 ft | 2 kts | 195° |
| 2026-04-24 16:04 | 45.66666 | 9.70070 | 777 ft | 2 kts | 195° |
| 2026-04-24 16:04 | 45.66680 | 9.70076 | 777 ft | 2 kts | 195° |
| 2026-04-24 16:04 | 45.66695 | 9.70081 | 778 ft | 2 kts | 195° |
| 2026-04-24 16:05 | 45.66719 | 9.70085 | 778 ft | 2 kts | 154° |
| 2026-04-24 16:05 | 45.66730 | 9.70071 | 778 ft | 2 kts | 119° |
| 2026-04-24 16:06 | 45.66734 | 9.70054 | 778 ft | 0 kts | 104° |
| 2026-04-24 16:07 | 45.66734 | 9.70058 | 778 ft | 0 kts | 104° |
| 2026-04-24 16:08 | 45.66733 | 9.70062 | 778 ft | 1 kts | 104° |
| 2026-04-24 16:08 | 45.66717 | 9.70149 | 778 ft | 0 kts | 105° |
| 2026-04-24 16:09 | 45.66714 | 9.70162 | 778 ft | 4 kts | 105° |
| 2026-04-24 16:09 | 45.66701 | 9.70233 | 778 ft | 11 kts | 105° |
| 2026-04-24 16:09 | 45.66670 | 9.70395 | 778 ft | 22 kts | 106° |
| 2026-04-24 16:10 | 45.66527 | 9.71130 | 771 ft | 23 kts | 112° |
| 2026-04-24 16:11 | 45.66440 | 9.71564 | 763 ft | 20 kts | 98° |
| 2026-04-24 16:11 | 45.66461 | 9.71734 | 762 ft | 15 kts | 76° |
| 2026-04-24 16:11 | 45.66489 | 9.71873 | 760 ft | 14 kts | 70° |
| 2026-04-24 16:12 | 45.66564 | 9.71880 | 761 ft | 0 kts | 282° |
| 2026-04-24 16:12 | 45.66700 | 9.71144 | 774 ft | 114 kts | 285° |
| 2026-04-24 16:13 | 45.66964 | 9.69709 | 929 ft | 172 kts | 284° |
| 2026-04-24 16:13 | 45.66920 | 9.66485 | 2727 ft | 177 kts | 237° |
| 2026-04-24 16:14 | 45.64987 | 9.63627 | 3600 ft | 227 kts | 226° |
| 2026-04-24 16:14 | 45.63826 | 9.61949 | 4199 ft | 249 kts | 226° |
| 2026-04-24 16:14 | 45.61340 | 9.58556 | 6318 ft | 255 kts | 217° |
| 2026-04-24 16:15 | 45.60291 | 9.57746 | 6681 ft | 271 kts | 197° |
| 2026-04-24 16:15 | 45.56385 | 9.60097 | 8687 ft | 295 kts | 121° |
| 2026-04-24 16:16 | 45.55800 | 9.65805 | 10450 ft | 307 kts | 76° |
| 2026-04-24 16:16 | 45.56421 | 9.68848 | 10856 ft | 330 kts | 72° |
| 2026-04-24 16:17 | 45.58564 | 9.78995 | 12374 ft | 374 kts | 74° |
| 2026-04-24 16:17 | 45.60644 | 9.85912 | 13751 ft | 386 kts | 61° |
| 2026-04-24 16:18 | 45.63166 | 9.92834 | 15090 ft | 398 kts | 62° |
| 2026-04-24 16:18 | 45.65678 | 9.99982 | 16372 ft | 408 kts | 62° |
| 2026-04-24 16:18 | 45.66935 | 10.03585 | 16989 ft | 413 kts | 62° |
| 2026-04-24 16:19 | 45.69510 | 10.11002 | 18176 ft | 422 kts | 62° |
| 2026-04-24 16:19 | 45.70817 | 10.14779 | 18753 ft | 426 kts | 62° |
| 2026-04-24 16:20 | 45.73452 | 10.22417 | 19858 ft | 434 kts | 61° |
| 2026-04-24 16:20 | 45.76150 | 10.30261 | 20918 ft | 442 kts | 61° |
| 2026-04-24 16:20 | 45.77502 | 10.34201 | 21414 ft | 446 kts | 61° |
| 2026-04-24 16:21 | 45.79165 | 10.39054 | 22003 ft | 450 kts | 61° |
| 2026-04-24 16:21 | 45.80166 | 10.41961 | 22655 ft | 444 kts | 62° |
| 2026-04-24 16:21 | 45.81504 | 10.45872 | 23390 ft | 440 kts | 63° |
| 2026-04-24 16:22 | 45.82806 | 10.49878 | 23796 ft | 444 kts | 63° |
| 2026-04-24 16:22 | 45.85361 | 10.57842 | 24851 ft | 444 kts | 63° |
| 2026-04-24 16:22 | 45.86669 | 10.61894 | 25283 ft | 446 kts | 63° |
| 2026-04-24 16:23 | 45.87971 | 10.65920 | 25728 ft | 448 kts | 64° |
| 2026-04-24 16:23 | 45.89289 | 10.69997 | 26095 ft | 451 kts | 64° |
| 2026-04-24 16:23 | 45.90608 | 10.74078 | 26478 ft | 453 kts | 64° |
| 2026-04-24 16:24 | 45.93247 | 10.82256 | 27193 ft | 457 kts | 64° |
| 2026-04-24 16:24 | 45.94576 | 10.86379 | 27548 ft | 459 kts | 63° |
| 2026-04-24 16:24 | 45.95922 | 10.90556 | 27890 ft | 460 kts | 64° |
| 2026-04-24 16:24 | 45.97272 | 10.94749 | 28236 ft | 462 kts | 64° |
| 2026-04-24 16:25 | 45.98609 | 10.98915 | 28603 ft | 462 kts | 63° |
| 2026-04-24 16:25 | 45.99954 | 11.03117 | 29031 ft | 461 kts | 63° |
| 2026-04-24 16:25 | 46.01292 | 11.07303 | 29446 ft | 460 kts | 63° |
| 2026-04-24 16:26 | 46.03328 | 11.13683 | 30132 ft | 457 kts | 63° |
| 2026-04-24 16:26 | 46.04640 | 11.17799 | 30476 ft | 458 kts | 64° |
| 2026-04-24 16:26 | 46.07020 | 11.25257 | 31133 ft | 457 kts | 63° |
| 2026-04-24 16:27 | 46.07816 | 11.27755 | 31366 ft | 456 kts | 63° |
| 2026-04-24 16:27 | 46.09128 | 11.31906 | 31800 ft | 454 kts | 64° |
| 2026-04-24 16:27 | 46.10403 | 11.36071 | 32023 ft | 452 kts | 65° |
| 2026-04-24 16:28 | 46.12833 | 11.44334 | 32021 ft | 447 kts | 65° |
| 2026-04-24 16:28 | 46.16457 | 11.56625 | 32021 ft | 443 kts | 65° |
| 2026-04-24 16:29 | 46.18861 | 11.64796 | 32021 ft | 444 kts | 65° |
| 2026-04-24 16:30 | 46.23665 | 11.81188 | 32020 ft | 445 kts | 65° |
| 2026-04-24 16:30 | 46.26065 | 11.89416 | 32020 ft | 444 kts | 65° |
| 2026-04-24 16:31 | 46.28455 | 11.97630 | 32020 ft | 444 kts | 65° |
| 2026-04-24 16:31 | 46.30830 | 12.05821 | 32020 ft | 444 kts | 65° |
| 2026-04-24 16:32 | 46.33207 | 12.14048 | 32020 ft | 444 kts | 65° |
| 2026-04-24 16:32 | 46.35581 | 12.22289 | 32020 ft | 444 kts | 65° |
| 2026-04-24 16:33 | 46.37955 | 12.30557 | 32020 ft | 444 kts | 65° |
| 2026-04-24 16:33 | 46.40309 | 12.38786 | 32020 ft | 444 kts | 65° |
| 2026-04-24 16:34 | 46.42669 | 12.47062 | 32020 ft | 444 kts | 65° |
| 2026-04-24 16:34 | 46.45019 | 12.55331 | 32020 ft | 444 kts | 65° |
| 2026-04-24 16:35 | 46.47357 | 12.63583 | 32020 ft | 444 kts | 65° |
| 2026-04-24 16:35 | 46.49687 | 12.71842 | 32020 ft | 445 kts | 66° |
| 2026-04-24 16:36 | 46.52021 | 12.80141 | 32020 ft | 445 kts | 66° |
| 2026-04-24 16:36 | 46.54357 | 12.88475 | 32020 ft | 444 kts | 66° |
| 2026-04-24 16:37 | 46.56675 | 12.96772 | 32020 ft | 444 kts | 66° |
| 2026-04-24 16:37 | 46.58993 | 13.05099 | 32020 ft | 445 kts | 66° |
| 2026-04-24 16:38 | 46.61298 | 13.13407 | 32020 ft | 445 kts | 66° |
| 2026-04-24 16:38 | 46.63600 | 13.21731 | 32020 ft | 445 kts | 66° |
| 2026-04-24 16:39 | 46.65900 | 13.30077 | 32020 ft | 445 kts | 66° |
| 2026-04-24 16:39 | 46.68178 | 13.38374 | 32020 ft | 444 kts | 66° |
| 2026-04-24 16:40 | 46.70462 | 13.46719 | 32019 ft | 444 kts | 66° |
| 2026-04-24 16:40 | 46.72749 | 13.55104 | 32020 ft | 445 kts | 66° |
| 2026-04-24 16:41 | 46.75016 | 13.63448 | 32019 ft | 444 kts | 66° |
| 2026-04-24 16:41 | 46.77288 | 13.71843 | 32020 ft | 445 kts | 67° |
| 2026-04-24 16:42 | 46.79546 | 13.80213 | 32020 ft | 445 kts | 67° |
| 2026-04-24 16:42 | 46.81792 | 13.88569 | 32020 ft | 445 kts | 67° |
| 2026-04-24 16:43 | 46.84041 | 13.96967 | 32020 ft | 445 kts | 67° |
| 2026-04-24 16:43 | 46.86286 | 14.05378 | 32020 ft | 444 kts | 67° |
| 2026-04-24 16:44 | 46.88518 | 14.13767 | 32019 ft | 444 kts | 67° |
| 2026-04-24 16:44 | 46.90748 | 14.22181 | 32019 ft | 444 kts | 67° |
| 2026-04-24 16:45 | 46.92979 | 14.30627 | 32019 ft | 444 kts | 67° |
| 2026-04-24 16:45 | 46.95186 | 14.39013 | 32019 ft | 444 kts | 67° |
| 2026-04-24 16:46 | 46.97393 | 14.47431 | 32019 ft | 445 kts | 67° |
| 2026-04-24 16:46 | 46.99604 | 14.55891 | 32019 ft | 444 kts | 67° |
| 2026-04-24 16:47 | 47.01808 | 14.64358 | 32019 ft | 444 kts | 67° |
| 2026-04-24 16:47 | 47.03998 | 14.72806 | 32020 ft | 445 kts | 68° |
| 2026-04-24 16:48 | 47.06192 | 14.81299 | 32020 ft | 445 kts | 68° |
| 2026-04-24 16:48 | 47.08361 | 14.89726 | 32020 ft | 445 kts | 68° |
| 2026-04-24 16:49 | 47.10542 | 14.98228 | 32020 ft | 445 kts | 68° |
| 2026-04-24 16:49 | 47.12700 | 15.06673 | 32020 ft | 445 kts | 68° |
| 2026-04-24 16:50 | 47.13424 | 15.09513 | 31909 ft | 447 kts | 68° |
| 2026-04-24 16:50 | 47.14891 | 15.15273 | 31076 ft | 451 kts | 68° |
| 2026-04-24 16:50 | 47.15968 | 15.19518 | 30433 ft | 447 kts | 68° |
| 2026-04-24 16:50 | 47.17054 | 15.23802 | 29779 ft | 445 kts | 68° |
| 2026-04-24 16:51 | 47.18124 | 15.28032 | 29134 ft | 446 kts | 68° |
| 2026-04-24 16:51 | 47.19206 | 15.32314 | 28489 ft | 451 kts | 68° |
| 2026-04-24 16:51 | 47.20298 | 15.36638 | 27843 ft | 455 kts | 68° |
| 2026-04-24 16:51 | 47.21402 | 15.41023 | 27190 ft | 458 kts | 68° |
| 2026-04-24 16:52 | 47.22493 | 15.45370 | 26544 ft | 459 kts | 68° |
| 2026-04-24 16:52 | 47.23592 | 15.49756 | 25894 ft | 454 kts | 68° |
| 2026-04-24 16:52 | 47.24665 | 15.54050 | 25244 ft | 446 kts | 68° |
| 2026-04-24 16:52 | 47.25726 | 15.58296 | 24566 ft | 443 kts | 68° |
| 2026-04-24 16:53 | 47.26790 | 15.62567 | 23868 ft | 441 kts | 68° |
| 2026-04-24 16:53 | 47.27840 | 15.66785 | 23166 ft | 438 kts | 69° |
| 2026-04-24 16:53 | 47.28865 | 15.70914 | 22480 ft | 434 kts | 69° |
| 2026-04-24 16:53 | 47.29904 | 15.75105 | 21777 ft | 430 kts | 69° |
| 2026-04-24 16:54 | 47.30917 | 15.79199 | 21089 ft | 425 kts | 69° |
| 2026-04-24 16:54 | 47.31912 | 15.83228 | 20407 ft | 421 kts | 69° |
| 2026-04-24 16:54 | 47.32901 | 15.87242 | 19726 ft | 417 kts | 69° |
| 2026-04-24 16:54 | 47.33895 | 15.91280 | 19043 ft | 425 kts | 69° |
| 2026-04-24 16:55 | 47.35051 | 15.95357 | 18317 ft | 434 kts | 62° |
| 2026-04-24 16:55 | 47.36576 | 15.99091 | 17596 ft | 428 kts | 53° |
| 2026-04-24 16:55 | 47.38563 | 16.02251 | 16992 ft | 415 kts | 39° |
| 2026-04-24 16:55 | 47.40801 | 16.04855 | 16469 ft | 413 kts | 36° |
| 2026-04-24 16:56 | 47.43073 | 16.07423 | 15916 ft | 413 kts | 37° |
| 2026-04-24 16:56 | 47.45324 | 16.10019 | 15362 ft | 410 kts | 37° |
| 2026-04-24 16:56 | 47.47566 | 16.12620 | 14806 ft | 406 kts | 37° |
| 2026-04-24 16:56 | 47.49751 | 16.15159 | 14260 ft | 403 kts | 37° |
| 2026-04-24 16:57 | 47.51775 | 16.17516 | 13711 ft | 400 kts | 37° |
| 2026-04-24 16:57 | 47.53162 | 16.19136 | 13328 ft | 398 kts | 35° |
| 2026-04-24 16:57 | 47.55332 | 16.21698 | 12723 ft | 398 kts | 36° |
| 2026-04-24 16:57 | 47.57466 | 16.24198 | 12130 ft | 395 kts | 36° |
| 2026-04-24 16:58 | 47.59304 | 16.26336 | 11616 ft | 392 kts | 36° |
| 2026-04-24 16:58 | 47.61444 | 16.28837 | 11010 ft | 387 kts | 37° |
| 2026-04-24 16:58 | 47.63541 | 16.31294 | 10409 ft | 383 kts | 37° |
| 2026-04-24 16:58 | 47.65594 | 16.33705 | 9815 ft | 380 kts | 37° |
| 2026-04-24 16:59 | 47.67646 | 16.36117 | 9216 ft | 377 kts | 37° |
| 2026-04-24 16:59 | 47.69651 | 16.38479 | 8592 ft | 360 kts | 37° |
| 2026-04-24 16:59 | 47.73375 | 16.42874 | 7540 ft | 327 kts | 36° |
| 2026-04-24 17:00 | 47.75126 | 16.44941 | 7114 ft | 320 kts | 36° |
| 2026-04-24 17:00 | 47.78522 | 16.48955 | 6264 ft | 307 kts | 36° |
| 2026-04-24 17:00 | 47.80165 | 16.50900 | 5841 ft | 302 kts | 36° |
| 2026-04-24 17:01 | 47.83305 | 16.54623 | 5089 ft | 278 kts | 36° |
| 2026-04-24 17:01 | 47.84794 | 16.56390 | 4760 ft | 267 kts | 36° |
| 2026-04-24 17:02 | 47.87571 | 16.59688 | 4181 ft | 247 kts | 35° |
| 2026-04-24 17:02 | 47.88901 | 16.61268 | 3903 ft | 239 kts | 35° |
| 2026-04-24 17:02 | 47.90164 | 16.62772 | 3727 ft | 227 kts | 34° |
| 2026-04-24 17:02 | 47.91482 | 16.63865 | 3573 ft | 212 kts | 12° |
| 2026-04-24 17:03 | 47.94207 | 16.64765 | 3302 ft | 185 kts | 0° |
| 2026-04-24 17:03 | 47.95470 | 16.64564 | 3160 ft | 185 kts | 343° |
| 2026-04-24 17:03 | 47.96720 | 16.64142 | 3008 ft | 185 kts | 343° |
| 2026-04-24 17:04 | 47.97934 | 16.63708 | 2806 ft | 168 kts | 341° |
| 2026-04-24 17:04 | 47.99941 | 16.62883 | 2432 ft | 144 kts | 339° |
| 2026-04-24 17:04 | 48.00911 | 16.62477 | 2226 ft | 146 kts | 339° |
| 2026-04-24 17:05 | 48.01886 | 16.62068 | 2023 ft | 144 kts | 339° |
| 2026-04-24 17:05 | 48.02843 | 16.61666 | 1851 ft | 143 kts | 339° |
| 2026-04-24 17:05 | 48.04748 | 16.60870 | 1474 ft | 143 kts | 339° |
| 2026-04-24 17:06 | 48.05701 | 16.60478 | 1267 ft | 143 kts | 339° |
| 2026-04-24 17:06 | 48.07604 | 16.59671 | 858 ft | 142 kts | 339° |
| 2026-04-24 17:06 | 48.08551 | 16.59279 | 681 ft | 141 kts | 339° |
| 2026-04-24 17:07 | 48.09475 | 16.58879 | 596 ft | 132 kts | 339° |
| 2026-04-24 17:07 | 48.10149 | 16.58584 | 600 ft | 72 kts | 344° |
| 2026-04-24 17:07 | 48.10858 | 16.58291 | 597 ft | 30 kts | 343° |